createdAt,value
2017-11-24T00:01:16.571Z,96193.98
2017-11-24T00:03:44.135Z,96188.31
2017-11-24T00:06:11.731Z,96199.34
2017-11-24T00:08:39.335Z,96186.42
2017-11-24T00:11:07.181Z,96189.01
2017-11-24T00:13:34.831Z,96190.84
2017-11-24T00:16:02.452Z,96200.36
2017-11-24T00:18:30.086Z,96201.57
2017-11-24T00:20:57.700Z,96212.22
2017-11-24T00:23:25.278Z,96209.75
2017-11-24T00:25:52.857Z,96204.80
2017-11-24T00:28:20.452Z,96204.22
2017-11-24T00:30:48.041Z,96204.30
2017-11-24T00:33:15.601Z,96197.15
2017-11-24T00:35:43.196Z,96202.20
2017-11-24T00:38:10.830Z,96198.83
2017-11-24T00:40:38.423Z,96200.10
2017-11-24T00:43:06.108Z,96208.14
2017-11-24T00:45:34.108Z,96208.17
2017-11-24T00:48:01.667Z,96215.88
2017-11-24T00:50:29.231Z,96215.05
2017-11-24T00:52:56.866Z,96210.55
2017-11-24T00:55:24.464Z,96218.32
2017-11-24T00:57:52.030Z,96217.05
2017-11-24T01:00:19.587Z,96226.73
2017-11-24T01:02:47.157Z,96231.56
2017-11-24T01:05:14.708Z,96242.16
2017-11-24T01:07:42.278Z,96241.95
2017-11-24T01:10:09.895Z,96237.20
2017-11-24T01:12:37.451Z,96242.27
2017-11-24T01:15:05.138Z,96244.94
2017-11-24T01:17:32.752Z,96241.29
2017-11-24T01:20:00.315Z,96245.65
2017-11-24T01:22:27.878Z,96247.30
2017-11-24T01:24:55.474Z,96246.41
2017-11-24T01:27:23.738Z,96249.17
2017-11-24T01:29:51.446Z,96243.13
2017-11-24T01:32:19.047Z,96239.58
2017-11-24T01:34:46.614Z,96236.30
2017-11-24T01:37:14.379Z,96237.55
2017-11-24T01:39:42.022Z,96236.78
2017-11-24T01:42:09.772Z,96232.52
2017-11-24T01:44:37.339Z,96234.19
2017-11-24T01:47:05.131Z,96228.11
2017-11-24T01:49:32.720Z,96231.91
2017-11-24T01:52:00.323Z,96223.84
2017-11-24T01:54:27.924Z,96222.55
2017-11-24T01:56:55.532Z,96219.66
2017-11-24T01:59:23.107Z,96216.10
2017-11-24T02:01:50.724Z,96214.83
2017-11-24T02:04:18.300Z,96217.02
2017-11-24T02:06:45.867Z,96216.10
2017-11-24T02:09:13.583Z,96213.66
2017-11-24T02:11:41.130Z,96211.74
2017-11-24T02:14:08.737Z,96202.98
2017-11-24T02:16:36.459Z,96201.45
2017-11-24T02:19:04.105Z,96200.75
2017-11-24T02:21:31.740Z,96193.70
2017-11-24T02:23:59.313Z,96198.19
2017-11-24T02:26:26.884Z,96200.77
2017-11-24T02:28:54.479Z,96203.03
2017-11-24T02:31:22.891Z,96203.59
2017-11-24T02:33:50.450Z,96208.28
2017-11-24T02:36:17.986Z,96205.53
2017-11-24T02:38:45.606Z,96207.87
2017-11-24T02:41:13.324Z,96206.75
2017-11-24T02:43:41.043Z,96204.00
2017-11-24T02:46:08.646Z,96204.70
2017-11-24T02:48:36.227Z,96192.58
2017-11-24T02:51:03.892Z,96190.71
2017-11-24T02:53:31.915Z,96188.24
2017-11-24T02:55:59.828Z,96187.53
2017-11-24T02:58:27.407Z,96181.72
2017-11-24T03:00:54.970Z,96188.11
2017-11-24T03:03:22.809Z,96196.05
2017-11-24T03:05:50.350Z,96197.91
2017-11-24T03:08:17.934Z,96193.98
2017-11-24T03:10:45.532Z,96192.86
2017-11-24T03:13:13.537Z,96187.34
2017-11-24T03:15:41.140Z,96191.67
2017-11-24T03:18:08.766Z,96201.09
2017-11-24T03:20:36.312Z,96200.11
2017-11-24T03:23:06.097Z,96204.23
2017-11-24T03:25:33.720Z,96213.05
2017-11-24T03:28:02.061Z,96204.09
2017-11-24T03:30:29.652Z,96211.50
2017-11-24T03:32:57.222Z,96206.55
2017-11-24T03:35:24.815Z,96212.38
2017-11-24T03:37:52.396Z,96209.28
2017-11-24T03:40:19.987Z,96210.38
2017-11-24T03:42:47.556Z,96211.38
2017-11-24T03:45:15.433Z,96211.16
2017-11-24T03:47:43.024Z,96215.29
2017-11-24T03:50:10.807Z,96216.22
2017-11-24T03:52:38.607Z,96210.11
2017-11-24T03:55:06.181Z,96208.44
2017-11-24T03:57:33.840Z,96210.88
2017-11-24T04:00:01.551Z,96216.53
2017-11-24T04:02:29.142Z,96215.97
2017-11-24T04:04:56.699Z,96217.23
2017-11-24T04:07:24.266Z,96216.95
2017-11-24T04:09:51.853Z,96224.08
2017-11-24T04:12:20.162Z,96216.58
2017-11-24T04:14:47.736Z,96211.70
2017-11-24T04:17:15.333Z,96219.30
2017-11-24T04:19:42.963Z,96221.88
2017-11-24T04:22:10.603Z,96229.72
2017-11-24T04:24:38.188Z,96219.75
2017-11-24T04:27:06.132Z,96220.31
2017-11-24T04:29:33.682Z,96226.94
2017-11-24T04:32:01.240Z,96219.82
2017-11-24T04:34:28.864Z,96220.84
2017-11-24T04:36:56.396Z,96221.95
2017-11-24T04:39:23.974Z,96220.19
2017-11-24T04:41:51.579Z,96225.14
2017-11-24T04:44:19.245Z,96221.69
2017-11-24T04:46:46.896Z,96225.48
2017-11-24T04:49:14.503Z,96216.56
2017-11-24T04:51:42.089Z,96213.14
2017-11-24T04:54:09.698Z,96211.34
2017-11-24T04:56:37.302Z,96212.41
2017-11-24T04:59:04.857Z,96215.02
2017-11-24T05:01:32.427Z,96216.86
2017-11-24T05:04:00.038Z,96223.94
2017-11-24T05:06:27.618Z,96226.03
2017-11-24T05:08:55.182Z,96226.16
2017-11-24T05:11:22.774Z,96223.33
2017-11-24T05:13:50.385Z,96221.59
2017-11-24T05:16:17.952Z,96228.68
2017-11-24T05:18:45.584Z,96221.46
2017-11-24T05:21:13.514Z,96217.64
2017-11-24T05:23:41.126Z,96213.91
2017-11-24T05:26:08.768Z,96217.08
2017-11-24T05:28:36.340Z,96218.70
2017-11-24T05:31:03.955Z,96219.78
2017-11-24T05:33:31.531Z,96219.11
2017-11-24T05:35:59.111Z,96214.92
2017-11-24T05:38:26.672Z,96219.11
2017-11-24T05:40:54.265Z,96219.48
2017-11-24T05:45:54.631Z,96213.74
2017-11-24T05:48:22.231Z,96215.53
2017-11-24T05:50:49.808Z,96221.27
2017-11-24T05:53:18.102Z,96216.95
2017-11-24T05:55:45.690Z,96224.70
2017-11-24T05:58:13.313Z,96222.54
2017-11-24T06:00:40.962Z,96224.77
2017-11-24T06:03:08.692Z,96220.20
2017-11-24T06:05:37.174Z,96230.79
2017-11-24T06:08:04.778Z,96237.69
2017-11-24T06:10:32.359Z,96230.77
2017-11-24T06:12:59.937Z,96239.23
2017-11-24T06:15:27.542Z,96231.25
2017-11-24T06:17:55.154Z,96231.68
2017-11-24T06:20:22.756Z,96228.31
2017-11-24T06:22:50.347Z,96228.09
2017-11-24T06:25:17.955Z,96217.79
2017-11-24T06:27:45.566Z,96215.73
2017-11-24T06:30:13.204Z,96220.67
2017-11-24T06:32:40.791Z,96216.22
2017-11-24T06:35:08.386Z,96212.41
2017-11-24T06:37:35.984Z,96213.77
2017-11-24T06:40:03.588Z,96213.84
2017-11-24T06:42:31.209Z,96219.66
2017-11-24T06:44:58.797Z,96215.05
2017-11-24T06:47:26.640Z,96222.18
2017-11-24T06:49:54.271Z,96222.91
2017-11-24T06:52:22.146Z,96232.03
2017-11-24T06:54:49.736Z,96226.20
2017-11-24T06:57:17.429Z,96230.02
2017-11-24T06:59:45.181Z,96226.69
2017-11-24T07:02:14.139Z,96217.98
2017-11-24T07:04:41.803Z,96225.20
2017-11-24T07:07:09.532Z,96219.38
2017-11-24T07:09:37.191Z,96225.59
2017-11-24T07:12:05.842Z,96221.17
2017-11-24T07:14:33.423Z,96213.55
2017-11-24T07:17:01.054Z,96206.52
2017-11-24T07:19:28.774Z,96211.27
2017-11-24T07:21:56.725Z,96210.84
2017-11-24T07:24:24.320Z,96208.64
2017-11-24T07:26:52.004Z,96209.09
2017-11-24T07:29:19.600Z,96214.17
2017-11-24T07:31:47.512Z,96209.17
2017-11-24T07:34:15.207Z,96213.47
2017-11-24T07:36:42.814Z,96214.75
2017-11-24T07:39:11.395Z,96206.56
2017-11-24T07:41:39.019Z,96203.11
2017-11-24T07:44:06.606Z,96210.58
2017-11-24T07:46:34.202Z,96218.84
2017-11-24T07:49:01.797Z,96214.44
2017-11-24T07:51:29.351Z,96211.96
2017-11-24T07:53:56.939Z,96213.44
2017-11-24T07:56:24.545Z,96209.05
2017-11-24T07:58:52.121Z,96210.28
2017-11-24T08:01:19.700Z,96211.76
2017-11-24T08:03:47.352Z,96204.82
2017-11-24T08:06:15.144Z,96203.20
2017-11-24T08:08:42.715Z,96197.83
2017-11-24T08:11:10.465Z,96199.30
2017-11-24T08:13:38.049Z,96196.80
2017-11-24T08:16:05.654Z,96186.58
2017-11-24T08:18:33.311Z,96182.20
2017-11-24T08:21:00.942Z,96178.08
2017-11-24T08:23:28.695Z,96176.13
2017-11-24T08:25:56.381Z,96172.27
2017-11-24T08:28:24.867Z,96172.17
2017-11-24T08:30:52.443Z,96172.31
2017-11-24T08:33:20.181Z,96161.75
2017-11-24T08:35:47.847Z,96160.83
2017-11-24T08:38:15.532Z,96157.05
2017-11-24T08:40:43.178Z,96157.38
2017-11-24T08:43:11.157Z,96154.93
2017-11-24T08:45:38.969Z,96156.95
2017-11-24T08:48:12.063Z,96154.05
2017-11-24T08:50:39.635Z,96150.39
2017-11-24T08:53:07.396Z,96145.02
2017-11-24T08:55:35.153Z,96149.53
2017-11-24T08:58:02.747Z,96148.42
2017-11-24T09:00:30.324Z,96147.22
2017-11-24T09:02:57.888Z,96143.94
2017-11-24T09:05:25.645Z,96138.72
2017-11-24T09:07:53.267Z,96138.83
2017-11-24T09:10:20.830Z,96142.08
2017-11-24T09:12:48.433Z,96142.27
2017-11-24T09:15:16.021Z,96142.06
2017-11-24T09:17:43.598Z,96134.14
2017-11-24T09:20:11.216Z,96140.81
2017-11-24T09:22:39.469Z,96149.17
2017-11-24T09:25:07.126Z,96142.15
2017-11-24T09:27:34.820Z,96142.20
2017-11-24T09:30:02.410Z,96144.20
2017-11-24T09:32:30.028Z,96141.20
2017-11-24T09:34:57.579Z,96139.92
2017-11-24T09:37:25.115Z,96135.55
2017-11-24T09:39:52.705Z,96130.95
2017-11-24T09:42:20.277Z,96141.48
2017-11-24T09:44:47.869Z,96127.94
2017-11-24T09:47:15.456Z,96126.41
2017-11-24T09:49:43.035Z,96127.70
2017-11-24T09:52:10.696Z,96129.69
2017-11-24T09:54:38.314Z,96133.40
2017-11-24T09:57:05.941Z,96126.20
2017-11-24T09:59:33.541Z,96127.20
2017-11-24T10:02:01.113Z,96128.43
2017-11-24T10:04:28.660Z,96127.09
2017-11-24T10:06:56.220Z,96130.19
2017-11-24T10:09:23.842Z,96132.95
2017-11-24T10:11:51.617Z,96125.90
2017-11-24T10:14:19.189Z,96122.84
2017-11-24T10:16:46.756Z,96124.11
2017-11-24T10:19:14.393Z,96121.29
2017-11-24T10:21:47.438Z,96120.42
2017-11-24T10:24:15.142Z,96120.56
2017-11-24T10:26:42.710Z,96118.95
2017-11-24T10:29:10.504Z,96116.17
2017-11-24T10:31:38.102Z,96115.67
2017-11-24T10:34:05.665Z,96107.22
2017-11-24T10:36:33.214Z,96111.84
2017-11-24T10:39:00.841Z,96111.70
2017-11-24T10:41:28.391Z,96109.52
2017-11-24T10:43:55.962Z,96118.00
2017-11-24T10:46:23.646Z,96121.77
2017-11-24T10:48:51.185Z,96124.13
2017-11-24T10:51:18.724Z,96120.55
2017-11-24T10:53:46.357Z,96119.59
2017-11-24T10:56:13.976Z,96112.77
2017-11-24T10:58:41.552Z,96107.42
2017-11-24T11:01:09.201Z,96108.28
2017-11-24T11:03:36.738Z,96103.70
2017-11-24T11:06:04.293Z,96105.36
2017-11-24T11:08:31.844Z,96101.89
2017-11-24T11:10:59.427Z,96105.63
2017-11-24T11:13:27.006Z,96104.77
2017-11-24T11:15:54.607Z,96105.52
2017-11-24T11:18:22.133Z,96098.55
2017-11-24T11:20:49.673Z,96092.52
2017-11-24T11:23:17.222Z,96088.44
2017-11-24T11:25:44.789Z,96079.27
2017-11-24T11:28:22.843Z,96082.86
2017-11-24T11:30:50.405Z,96085.55
2017-11-24T11:33:18.007Z,96084.91
2017-11-24T11:35:45.574Z,96085.00
2017-11-24T11:38:13.160Z,96085.05
2017-11-24T11:40:41.008Z,96087.34
2017-11-24T11:43:08.580Z,96085.92
2017-11-24T11:45:36.830Z,96086.11
2017-11-24T11:48:04.384Z,96085.34
2017-11-24T11:50:31.944Z,96077.47
2017-11-24T11:52:59.545Z,96072.80
2017-11-24T11:55:27.133Z,96069.78
2017-11-24T11:57:54.701Z,96064.78
2017-11-24T12:00:22.272Z,96056.20
2017-11-24T12:02:49.867Z,96059.72
2017-11-24T12:05:17.390Z,96058.77
2017-11-24T12:07:44.926Z,96058.70
2017-11-24T12:10:12.659Z,96055.89
2017-11-24T12:12:40.190Z,96051.59
2017-11-24T12:15:07.834Z,96057.68
2017-11-24T12:17:35.446Z,96050.23
2017-11-24T12:20:03.011Z,96043.79
2017-11-24T12:22:30.558Z,96051.77
2017-11-24T12:24:58.132Z,96047.58
2017-11-24T12:27:25.678Z,96051.75
2017-11-24T12:29:53.257Z,96055.09
2017-11-24T12:32:20.875Z,96045.90
2017-11-24T12:34:48.457Z,96044.33
2017-11-24T12:37:16.022Z,96037.66
2017-11-24T12:39:43.587Z,96036.80
2017-11-24T12:42:11.145Z,96039.55
2017-11-24T12:44:38.692Z,96034.33
2017-11-24T12:47:06.326Z,96035.90
2017-11-24T12:49:33.885Z,96036.89
2017-11-24T12:52:01.452Z,96028.83
2017-11-24T12:54:29.030Z,96030.48
2017-11-24T12:56:56.579Z,96027.05
2017-11-24T12:59:24.182Z,96022.95
2017-11-24T13:01:51.749Z,96029.71
2017-11-24T13:04:19.304Z,96019.23
2017-11-24T13:06:46.889Z,96018.14
2017-11-24T13:09:14.474Z,96017.38
2017-11-24T13:11:42.027Z,96008.89
2017-11-24T13:14:09.587Z,96007.55
2017-11-24T13:16:37.149Z,96012.19
2017-11-24T13:19:04.699Z,96005.88
2017-11-24T13:21:32.307Z,96012.36
2017-11-24T13:23:59.850Z,96012.88
2017-11-24T13:26:27.386Z,96014.84
2017-11-24T13:28:54.945Z,96017.61
2017-11-24T13:31:26.155Z,96012.73
2017-11-24T13:33:53.699Z,96013.66
2017-11-24T13:36:21.248Z,96016.16
2017-11-24T13:38:48.810Z,96015.88
2017-11-24T13:41:16.350Z,96013.58
2017-11-24T13:43:43.881Z,96021.98
2017-11-24T13:46:11.492Z,96022.53
2017-11-24T13:48:39.052Z,96026.50
2017-11-24T13:51:06.639Z,96030.97
2017-11-24T13:53:34.209Z,96027.41
2017-11-24T13:56:01.740Z,96027.32
2017-11-24T13:58:29.327Z,96030.90
2017-11-24T14:00:56.954Z,96030.13
2017-11-24T14:03:24.520Z,96030.08
2017-11-24T14:05:52.116Z,96037.58
2017-11-24T14:08:19.748Z,96044.02
2017-11-24T14:10:47.278Z,96036.41
2017-11-24T14:13:14.829Z,96038.81
2017-11-24T14:15:42.423Z,96041.75
2017-11-24T14:18:09.960Z,96038.27
2017-11-24T14:20:37.526Z,96041.42
2017-11-24T14:23:05.134Z,96047.48
2017-11-24T14:25:32.679Z,96052.20
2017-11-24T14:28:00.256Z,96050.23
2017-11-24T14:30:27.916Z,96042.48
2017-11-24T14:32:55.473Z,96048.27
2017-11-24T14:35:23.053Z,96050.38
2017-11-24T14:37:50.626Z,96042.45
2017-11-24T14:40:18.169Z,96047.52
2017-11-24T14:42:45.698Z,96046.78
2017-11-24T14:45:13.254Z,96052.47
2017-11-24T14:47:40.810Z,96054.78
2017-11-24T14:50:08.342Z,96046.64
2017-11-24T14:52:35.969Z,96048.39
2017-11-24T14:55:03.524Z,96052.45
2017-11-24T14:57:31.072Z,96045.15
2017-11-24T14:59:58.649Z,96053.20
2017-11-24T15:02:26.187Z,96046.54
2017-11-24T15:04:53.755Z,96042.79
2017-11-24T15:07:21.344Z,96051.66
2017-11-24T15:09:48.892Z,96051.19
2017-11-24T15:12:16.637Z,96054.47
2017-11-24T15:14:44.206Z,96049.75
2017-11-24T15:17:12.192Z,96052.77
2017-11-24T15:19:40.128Z,96052.70
2017-11-24T15:22:08.311Z,96048.88
2017-11-24T15:24:35.882Z,96042.15
2017-11-24T15:27:03.531Z,96045.89
2017-11-24T15:29:31.110Z,96049.95
2017-11-24T15:31:58.669Z,96060.08
2017-11-24T15:34:26.243Z,96060.61
2017-11-24T15:36:53.838Z,96056.30
2017-11-24T15:39:21.422Z,96060.50
2017-11-24T15:41:49.067Z,96063.35
2017-11-24T15:44:16.653Z,96064.48
2017-11-24T15:46:44.243Z,96064.84
2017-11-24T15:49:12.016Z,96067.38
2017-11-24T15:51:39.772Z,96064.62
2017-11-24T15:54:07.360Z,96053.80
2017-11-24T15:56:35.180Z,96077.16
2017-11-24T15:59:02.916Z,96078.15
2017-11-24T16:01:30.642Z,96079.58
2017-11-24T16:04:00.598Z,96071.06
2017-11-24T16:06:28.186Z,96070.16
2017-11-24T16:08:55.755Z,96071.23
2017-11-24T16:11:23.356Z,96075.14
2017-11-24T16:13:50.928Z,96066.17
2017-11-24T16:16:18.522Z,96079.10
2017-11-24T16:18:46.115Z,96069.59
2017-11-24T16:21:13.782Z,96074.67
2017-11-24T16:23:41.343Z,96073.49
2017-11-24T16:26:08.925Z,96076.78
2017-11-24T16:28:36.514Z,96070.92
2017-11-24T16:31:04.099Z,96081.23
2017-11-24T16:33:32.426Z,96074.95
2017-11-24T16:36:00.057Z,96079.24
2017-11-24T16:38:27.617Z,96074.09
2017-11-24T16:40:55.161Z,96079.91
2017-11-24T16:43:24.236Z,96078.00
2017-11-24T16:45:51.917Z,96077.56
2017-11-24T16:48:19.511Z,96077.91
2017-11-24T16:50:47.123Z,96085.83
2017-11-24T16:53:14.673Z,96068.39
2017-11-24T16:55:42.275Z,96074.97
2017-11-24T16:58:09.893Z,96069.47
2017-11-24T17:00:37.464Z,96069.20
2017-11-24T17:03:05.209Z,96069.80
2017-11-24T17:05:32.797Z,96074.42
2017-11-24T17:08:00.439Z,96069.82
2017-11-24T17:10:28.035Z,96060.03
2017-11-24T17:12:56.691Z,96064.83
2017-11-24T17:15:24.375Z,96059.25
2017-11-24T17:17:51.991Z,96055.70
2017-11-24T17:20:19.591Z,96060.23
2017-11-24T17:22:47.553Z,96045.23
2017-11-24T17:25:15.201Z,96047.33
2017-11-24T17:27:42.821Z,96044.67
2017-11-24T17:30:11.453Z,96057.95
2017-11-24T17:32:39.079Z,96051.56
2017-11-24T17:35:06.645Z,96052.83
2017-11-24T17:37:34.260Z,96054.42
2017-11-24T17:40:01.853Z,96046.45
2017-11-24T17:42:29.487Z,96047.09
2017-11-24T17:44:57.240Z,96043.48
2017-11-24T17:47:24.910Z,96052.86
2017-11-24T17:49:52.484Z,96043.23
2017-11-24T17:52:20.077Z,96044.52
2017-11-24T17:54:47.625Z,96048.36
2017-11-24T17:57:15.176Z,96040.68
2017-11-24T17:59:42.786Z,96038.78
2017-11-24T18:02:14.287Z,96037.74
2017-11-24T18:04:41.843Z,96036.24
2017-11-24T18:07:09.858Z,96032.11
2017-11-24T18:09:38.108Z,96037.09
2017-11-24T18:12:05.696Z,96028.72
2017-11-24T18:14:33.333Z,96031.84
2017-11-24T18:17:00.906Z,96022.57
2017-11-24T18:19:28.524Z,96031.34
2017-11-24T18:21:56.321Z,96038.34
2017-11-24T18:24:23.882Z,96034.61
2017-11-24T18:26:51.496Z,96032.02
2017-11-24T18:29:19.126Z,96033.03
2017-11-24T18:31:46.760Z,96035.23
2017-11-24T18:34:14.356Z,96032.02
2017-11-24T18:36:42.000Z,96033.55
2017-11-24T18:39:09.769Z,96036.50
2017-11-24T18:41:37.430Z,96031.75
2017-11-24T18:44:05.029Z,96030.28
2017-11-24T18:46:32.636Z,96026.44
2017-11-24T18:49:00.218Z,96032.81
2017-11-24T18:51:27.857Z,96031.24
2017-11-24T18:53:55.456Z,96028.32
2017-11-24T18:56:23.117Z,96029.42
2017-11-24T18:58:50.771Z,96022.42
2017-11-24T19:01:18.354Z,96021.47
2017-11-24T19:03:48.540Z,96018.67
2017-11-24T19:06:16.158Z,96014.84
2017-11-24T19:08:44.432Z,96016.53
2017-11-24T19:11:12.083Z,96025.44
2017-11-24T19:13:39.659Z,96025.12
2017-11-24T19:16:07.220Z,96017.97
2017-11-24T19:18:34.837Z,96014.33
2017-11-24T19:21:02.617Z,96013.57
2017-11-24T19:23:30.201Z,96009.34
2017-11-24T19:25:57.897Z,96013.71
2017-11-24T19:28:25.489Z,96014.24
2017-11-24T19:30:53.109Z,96018.51
2017-11-24T19:33:20.751Z,96013.90
2017-11-24T19:35:48.548Z,96016.83
2017-11-24T19:38:16.204Z,96010.23
2017-11-24T19:40:43.814Z,96012.88
2017-11-24T19:43:11.639Z,96011.56
2017-11-24T19:45:39.202Z,96011.94
2017-11-24T19:48:08.523Z,96010.49
2017-11-24T19:50:36.181Z,96017.92
2017-11-24T19:53:03.776Z,96010.72
2017-11-24T19:55:31.361Z,96018.30
2017-11-24T19:57:58.915Z,96022.23
2017-11-24T20:00:26.533Z,96014.41
2017-11-24T20:02:54.098Z,96010.17
2017-11-24T20:05:21.780Z,96017.77
2017-11-24T20:07:49.350Z,96014.30
2017-11-24T20:10:16.942Z,96013.89
2017-11-24T20:12:44.614Z,96010.52
2017-11-24T20:15:12.275Z,96011.86
2017-11-24T20:17:39.845Z,96011.21
2017-11-24T20:20:07.439Z,96006.30
2017-11-24T20:22:35.020Z,96011.95
2017-11-24T20:25:02.575Z,96009.84
2017-11-24T20:27:30.184Z,96010.02
2017-11-24T20:29:57.797Z,96012.38
2017-11-24T20:32:25.386Z,96016.42
2017-11-24T20:34:52.997Z,96010.05
2017-11-24T20:37:20.568Z,96020.90
2017-11-24T20:39:48.144Z,96025.81
2017-11-24T20:42:15.730Z,96023.67
2017-11-24T20:44:43.306Z,96016.84
2017-11-24T20:47:10.907Z,96012.56
2017-11-24T20:49:38.498Z,96010.77
2017-11-24T20:52:06.064Z,96013.95
2017-11-24T20:54:33.643Z,96008.23
2017-11-24T20:57:01.241Z,96009.34
2017-11-24T20:59:28.814Z,96011.28
2017-11-24T21:01:56.428Z,96003.72
2017-11-24T21:04:24.035Z,96007.83
2017-11-24T21:06:51.610Z,96010.51
2017-11-24T21:09:19.191Z,96006.58
2017-11-24T21:11:46.777Z,95999.20
2017-11-24T21:14:14.387Z,96002.50
2017-11-24T21:16:42.167Z,96001.69
2017-11-24T21:19:09.958Z,95995.10
2017-11-24T21:21:37.514Z,95995.00
2017-11-24T21:24:05.147Z,96008.98
2017-11-24T21:26:32.802Z,96012.05
2017-11-24T21:29:00.447Z,96023.89
2017-11-24T21:34:18.476Z,96011.68
2017-11-24T21:36:46.073Z,96028.47
2017-11-24T21:39:13.674Z,96031.50
2017-11-24T21:41:41.284Z,96027.28
2017-11-24T21:44:08.845Z,96032.69
2017-11-24T21:46:36.402Z,96030.42
2017-11-24T21:49:04.055Z,96039.11
2017-11-24T21:51:31.703Z,96037.74
2017-11-24T21:53:59.245Z,96038.33
2017-11-24T21:56:27.849Z,96039.06
2017-11-24T21:58:55.448Z,96037.65
2017-11-24T22:01:23.008Z,96042.58
2017-11-24T22:03:50.600Z,96044.66
2017-11-24T22:06:18.219Z,96039.75
2017-11-24T22:08:45.773Z,96038.13
2017-11-24T22:11:13.391Z,96033.33
2017-11-24T22:13:40.960Z,96038.72
2017-11-24T22:16:08.624Z,96036.88
2017-11-24T22:18:36.360Z,96027.45
2017-11-24T22:21:04.036Z,96026.12
2017-11-24T22:23:31.604Z,96028.64
2017-11-24T22:25:59.156Z,96021.83
2017-11-24T22:28:26.770Z,96022.06
2017-11-24T22:30:54.491Z,96017.27
2017-11-24T22:33:22.162Z,96015.73
2017-11-24T22:35:49.751Z,96013.91
2017-11-24T22:38:17.405Z,96017.22
2017-11-24T22:40:44.983Z,96016.17
2017-11-24T22:43:12.811Z,96013.74
2017-11-24T22:45:40.460Z,96011.31
2017-11-24T22:48:08.059Z,96015.16
2017-11-24T22:50:35.675Z,96025.16
2017-11-24T22:53:03.360Z,96025.20
2017-11-24T22:55:31.079Z,96026.11
2017-11-24T22:57:58.691Z,96012.99
2017-11-24T23:00:26.257Z,96013.86
2017-11-24T23:02:53.856Z,96024.81
2017-11-24T23:05:21.429Z,96019.00
2017-11-24T23:07:50.599Z,96028.28
2017-11-24T23:10:18.685Z,96021.30
2017-11-24T23:12:46.269Z,96022.11
2017-11-24T23:15:13.894Z,96016.55
2017-11-24T23:17:41.510Z,95995.62
2017-11-24T23:20:09.096Z,96001.58
2017-11-24T23:22:36.667Z,96002.41
2017-11-24T23:25:04.929Z,95997.56
2017-11-24T23:27:32.484Z,95998.56
2017-11-24T23:30:00.074Z,96004.33
2017-11-24T23:32:27.724Z,96007.30
2017-11-24T23:34:55.295Z,96010.23
2017-11-24T23:37:22.856Z,96008.16
2017-11-24T23:39:50.477Z,96003.37
2017-11-24T23:42:18.104Z,95991.78
2017-11-24T23:44:45.656Z,96004.67
2017-11-24T23:47:13.251Z,96009.34
2017-11-24T23:49:40.843Z,96003.06
2017-11-24T23:52:08.399Z,96006.37
2017-11-24T23:54:36.048Z,95997.28
2017-11-24T23:57:03.603Z,96000.58
2017-11-24T23:59:31.187Z,95998.47
